createdAt,value
2023-02-01T00:01:18.892Z,44.37
2023-02-01T00:03:31.882Z,44.22
2023-02-01T00:05:45.078Z,44.40
2023-02-01T00:07:57.916Z,44.21
2023-02-01T00:10:12.046Z,44.19
2023-02-01T00:12:24.821Z,44.21
2023-02-01T00:14:40.713Z,44.24
2023-02-01T00:16:56.188Z,44.25
2023-02-01T00:19:10.570Z,44.14
2023-02-01T00:21:25.123Z,44.10
2023-02-01T00:23:39.148Z,44.21
2023-02-01T00:25:51.859Z,44.32
2023-02-01T00:28:04.669Z,44.54
2023-02-01T00:30:20.694Z,44.37
2023-02-01T00:32:34.401Z,44.49
2023-02-01T00:34:48.079Z,44.65
2023-02-01T00:37:02.448Z,44.61
2023-02-01T00:39:15.692Z,44.65
2023-02-01T00:41:29.372Z,44.76
2023-02-01T00:43:43.407Z,45.24
2023-02-01T00:45:56.686Z,45.49
2023-02-01T00:48:10.564Z,45.39
2023-02-01T00:50:25.241Z,45.32
2023-02-01T00:52:38.433Z,45.25
2023-02-01T00:54:51.208Z,45.09
2023-02-01T00:57:04.005Z,45.24
2023-02-01T00:59:17.873Z,45.20
2023-02-01T01:01:32.140Z,45.49
2023-02-01T01:03:47.395Z,45.23
2023-02-01T01:06:04.261Z,45.20
2023-02-01T01:08:17.586Z,45.09
2023-02-01T01:10:30.645Z,45.13
2023-02-01T01:12:43.534Z,45.10
2023-02-01T01:14:56.602Z,45.11
2023-02-01T01:17:09.338Z,45.03
2023-02-01T01:19:22.133Z,45.27
2023-02-01T01:21:35.678Z,45.40
2023-02-01T01:23:50.111Z,45.26
2023-02-01T01:26:03.160Z,45.68
2023-02-01T01:28:17.665Z,45.59
2023-02-01T01:30:30.530Z,45.88
2023-02-01T01:32:43.788Z,45.95
2023-02-01T01:34:56.324Z,46.08
2023-02-01T01:37:10.084Z,46.06
2023-02-01T01:39:23.192Z,46.22
2023-02-01T01:41:37.385Z,46.34
2023-02-01T01:44:04.362Z,47.00
2023-02-01T01:46:19.476Z,46.93
2023-02-01T01:48:35.107Z,47.08
2023-02-01T01:50:51.128Z,47.08
2023-02-01T01:53:07.705Z,47.07
2023-02-01T01:55:24.990Z,47.32
2023-02-01T01:57:42.620Z,47.24
2023-02-01T01:59:59.968Z,47.30
2023-02-01T02:02:14.780Z,47.35
2023-02-01T02:04:28.878Z,47.45
2023-02-01T02:06:50.395Z,47.44
2023-02-01T02:09:06.835Z,47.49
2023-02-01T02:11:22.132Z,47.65
2023-02-01T02:13:39.480Z,47.47
2023-02-01T02:16:01.351Z,47.43
2023-02-01T02:18:19.541Z,47.55
2023-02-01T02:20:51.170Z,47.69
2023-02-01T02:23:33.961Z,47.60
2023-02-01T02:26:10.173Z,47.63
2023-02-01T02:28:47.236Z,47.66
2023-02-01T02:31:29.586Z,47.73
2023-02-01T02:33:52.706Z,47.86
2023-02-01T02:36:11.803Z,47.91
2023-02-01T02:38:34.547Z,48.31
2023-02-01T02:40:56.502Z,48.93
2023-02-01T02:43:31.179Z,49.12
2023-02-01T02:46:08.670Z,48.72
2023-02-01T02:48:27.511Z,48.44
2023-02-01T02:51:02.683Z,48.29
2023-02-01T02:53:39.079Z,48.29
2023-02-01T02:55:54.335Z,48.50
2023-02-01T02:58:25.569Z,48.45
2023-02-01T03:00:57.105Z,48.62
2023-02-01T03:03:26.963Z,48.65
2023-02-01T03:05:47.533Z,48.79
2023-02-01T03:08:10.035Z,48.68
2023-02-01T03:10:28.275Z,48.89
2023-02-01T03:13:02.291Z,48.83
2023-02-01T03:15:17.655Z,48.85
2023-02-01T03:17:41.090Z,49.23
2023-02-01T03:19:56.320Z,49.29
2023-02-01T03:22:13.131Z,49.49
2023-02-01T03:24:35.161Z,49.46
2023-02-01T03:26:52.738Z,49.65
2023-02-01T03:29:12.928Z,49.61
2023-02-01T03:31:29.162Z,49.66
2023-02-01T03:33:42.371Z,49.66
2023-02-01T03:36:01.353Z,49.68
2023-02-01T03:38:25.129Z,49.67
2023-02-01T03:40:41.023Z,49.85
2023-02-01T03:42:59.552Z,49.72
2023-02-01T03:45:18.577Z,50.54
2023-02-01T03:47:34.852Z,50.71
2023-02-01T03:49:51.007Z,50.36
2023-02-01T03:52:05.864Z,50.17
2023-02-01T03:54:22.146Z,50.11
2023-02-01T03:56:41.310Z,50.18
2023-02-01T03:59:02.235Z,50.35
2023-02-01T04:01:19.320Z,50.08
2023-02-01T04:03:34.149Z,50.25
2023-02-01T04:05:47.518Z,50.22
2023-02-01T04:08:00.845Z,50.53
2023-02-01T04:10:18.667Z,50.60
2023-02-01T04:12:33.223Z,50.61
2023-02-01T04:14:46.740Z,50.73
2023-02-01T04:17:00.032Z,50.76
2023-02-01T04:19:13.539Z,50.98
2023-02-01T04:21:26.023Z,50.84
2023-02-01T04:23:39.953Z,51.01
2023-02-01T04:25:53.042Z,50.94
2023-02-01T04:28:06.922Z,51.05
2023-02-01T04:30:22.373Z,51.08
2023-02-01T04:32:36.006Z,51.19
2023-02-01T04:34:49.350Z,51.34
2023-02-01T04:37:02.149Z,51.43
2023-02-01T04:39:15.823Z,51.57
2023-02-01T04:41:28.731Z,51.77
2023-02-01T04:43:41.644Z,51.78
2023-02-01T04:45:58.552Z,51.81
2023-02-01T04:48:13.298Z,51.89
2023-02-01T04:50:26.561Z,52.08
2023-02-01T04:52:40.395Z,52.08
2023-02-01T04:54:53.059Z,52.12
2023-02-01T04:57:06.031Z,52.17
2023-02-01T04:59:19.081Z,52.34
2023-02-01T05:01:32.587Z,52.35
2023-02-01T05:03:45.692Z,52.32
2023-02-01T05:05:58.151Z,52.42
2023-02-01T05:08:11.068Z,52.54
2023-02-01T05:10:25.075Z,52.59
2023-02-01T05:12:54.211Z,52.73
2023-02-01T05:15:07.677Z,52.60
2023-02-01T05:17:21.178Z,52.81
2023-02-01T05:19:34.031Z,52.65
2023-02-01T05:21:46.687Z,52.75
2023-02-01T05:24:15.157Z,52.66
2023-02-01T05:26:28.653Z,52.83
2023-02-01T05:28:41.626Z,52.88
2023-02-01T05:30:54.576Z,52.94
2023-02-01T05:33:07.748Z,53.00
2023-02-01T05:35:21.335Z,53.25
2023-02-01T05:37:35.127Z,53.12
2023-02-01T05:39:47.961Z,53.19
2023-02-01T05:42:00.595Z,53.27
2023-02-01T05:44:14.707Z,53.32
2023-02-01T05:46:27.506Z,53.43
2023-02-01T05:48:40.983Z,53.57
2023-02-01T05:50:53.812Z,53.67
2023-02-01T05:53:06.486Z,53.71
2023-02-01T05:55:19.748Z,53.75
2023-02-01T05:57:32.525Z,53.92
2023-02-01T05:59:46.921Z,53.89
2023-02-01T06:02:00.865Z,54.10
2023-02-01T06:04:13.766Z,54.14
2023-02-01T06:06:26.839Z,54.25
2023-02-01T06:08:42.500Z,54.55
2023-02-01T06:10:55.620Z,54.59
2023-02-01T06:13:08.526Z,54.73
2023-02-01T06:15:21.740Z,54.81
2023-02-01T06:17:34.504Z,54.99
2023-02-01T06:19:50.401Z,55.05
2023-02-01T06:22:03.012Z,55.20
2023-02-01T06:24:16.024Z,55.29
2023-02-01T06:26:30.599Z,55.46
2023-02-01T06:28:43.126Z,55.53
2023-02-01T06:30:56.067Z,55.58
2023-02-01T06:33:08.962Z,55.63
2023-02-01T06:35:23.025Z,55.69
2023-02-01T06:37:36.221Z,55.82
2023-02-01T06:39:49.245Z,55.97
2023-02-01T06:42:01.908Z,55.90
2023-02-01T06:44:15.047Z,55.93
2023-02-01T06:46:27.775Z,55.98
2023-02-01T06:48:41.481Z,55.90
2023-02-01T06:50:55.261Z,55.99
2023-02-01T06:53:08.337Z,55.93
2023-02-01T06:55:21.183Z,55.98
2023-02-01T06:57:35.318Z,56.05
2023-02-01T06:59:48.574Z,56.07
2023-02-01T07:02:01.304Z,56.21
2023-02-01T07:04:16.623Z,56.27
2023-02-01T07:06:29.547Z,56.28
2023-02-01T07:08:44.805Z,56.26
2023-02-01T07:10:57.547Z,56.36
2023-02-01T07:13:11.085Z,56.40
2023-02-01T07:15:25.362Z,56.43
2023-02-01T07:17:38.238Z,56.68
2023-02-01T07:19:51.016Z,56.74
2023-02-01T07:22:05.888Z,56.71
2023-02-01T07:24:18.706Z,56.74
2023-02-01T07:26:31.943Z,56.93
2023-02-01T07:28:44.939Z,56.84
2023-02-01T07:30:57.833Z,56.82
2023-02-01T07:33:10.689Z,56.90
2023-02-01T07:35:23.664Z,56.87
2023-02-01T07:37:38.185Z,56.76
2023-02-01T07:39:51.248Z,56.77
2023-02-01T07:42:03.923Z,56.72
2023-02-01T07:44:17.073Z,56.83
2023-02-01T07:46:29.749Z,57.01
2023-02-01T07:48:42.543Z,57.12
2023-02-01T07:51:00.727Z,57.17
2023-02-01T07:53:14.564Z,57.12
2023-02-01T07:55:27.420Z,57.38
2023-02-01T07:57:40.379Z,57.60
2023-02-01T08:00:09.414Z,57.52
2023-02-01T08:02:24.941Z,57.74
2023-02-01T08:04:38.041Z,57.79
2023-02-01T08:06:51.009Z,58.06
2023-02-01T08:09:03.996Z,57.94
2023-02-01T08:11:18.039Z,58.08
2023-02-01T08:13:31.070Z,58.29
2023-02-01T08:15:44.251Z,58.20
2023-02-01T08:17:59.009Z,58.56
2023-02-01T08:20:13.965Z,58.56
2023-02-01T08:22:27.064Z,58.59
2023-02-01T08:24:43.177Z,58.46
2023-02-01T08:26:56.327Z,58.58
2023-02-01T08:29:11.272Z,58.69
2023-02-01T08:31:26.330Z,58.83
2023-02-01T08:33:39.766Z,58.71
2023-02-01T08:35:52.665Z,59.01
2023-02-01T08:38:05.383Z,59.03
2023-02-01T08:40:24.166Z,59.35
2023-02-01T08:42:55.997Z,59.38
2023-02-01T08:45:09.981Z,59.68
2023-02-01T08:47:22.650Z,59.86
2023-02-01T08:49:35.643Z,59.86
2023-02-01T08:51:48.230Z,60.14
2023-02-01T08:54:01.118Z,60.12
2023-02-01T08:56:16.003Z,60.08
2023-02-01T08:58:29.223Z,60.05
2023-02-01T09:00:41.736Z,60.08
2023-02-01T09:02:54.549Z,59.98
2023-02-01T09:05:08.026Z,59.86
2023-02-01T09:07:20.940Z,59.67
2023-02-01T09:09:34.788Z,59.52
2023-02-01T09:11:47.921Z,59.61
2023-02-01T09:14:01.159Z,59.68
2023-02-01T09:16:14.456Z,59.62
2023-02-01T09:18:27.558Z,59.77
2023-02-01T09:20:43.087Z,59.70
2023-02-01T09:22:56.759Z,59.76
2023-02-01T09:25:10.365Z,59.78
2023-02-01T09:27:24.052Z,59.90
2023-02-01T09:29:37.162Z,59.98
2023-02-01T09:32:02.892Z,60.20
2023-02-01T09:34:16.842Z,59.96
2023-02-01T09:36:31.337Z,60.37
2023-02-01T09:38:52.382Z,60.35
2023-02-01T09:41:11.336Z,60.41
2023-02-01T09:43:42.204Z,60.55
2023-02-01T09:46:03.676Z,60.51
2023-02-01T09:48:20.936Z,60.46
2023-02-01T09:50:40.078Z,60.70
2023-02-01T09:53:01.480Z,60.66
2023-02-01T09:55:21.036Z,60.60
2023-02-01T09:57:44.838Z,60.60
2023-02-01T10:00:05.103Z,60.63
2023-02-01T10:02:27.470Z,60.66
2023-02-01T10:04:40.473Z,60.85
2023-02-01T10:07:08.464Z,60.84
2023-02-01T10:09:33.120Z,61.02
2023-02-01T10:11:59.048Z,61.16
2023-02-01T10:14:17.543Z,61.06
2023-02-01T10:16:41.406Z,61.18
2023-02-01T10:19:25.468Z,61.43
2023-02-01T10:21:52.661Z,61.37
2023-02-01T10:24:36.193Z,61.63
2023-02-01T10:26:51.880Z,61.78
2023-02-01T10:29:08.308Z,61.88
2023-02-01T10:31:22.873Z,61.90
2023-02-01T10:33:40.677Z,61.89
2023-02-01T10:35:58.033Z,61.97
2023-02-01T10:38:21.417Z,61.92
2023-02-01T10:40:35.724Z,62.03
2023-02-01T10:42:49.276Z,61.91
2023-02-01T10:45:05.892Z,62.08
2023-02-01T10:47:19.172Z,62.13
2023-02-01T10:49:38.286Z,62.07
2023-02-01T10:51:56.841Z,62.12
2023-02-01T10:54:15.648Z,62.15
2023-02-01T10:56:33.518Z,62.24
2023-02-01T10:58:51.634Z,62.31
2023-02-01T11:01:07.836Z,62.55
2023-02-01T11:03:43.188Z,62.50
2023-02-01T11:05:56.679Z,62.47
2023-02-01T11:08:09.805Z,62.54
2023-02-01T11:10:42.492Z,62.55
2023-02-01T11:13:00.512Z,62.66
2023-02-01T11:15:26.565Z,62.67
2023-02-01T11:17:44.398Z,62.69
2023-02-01T11:20:07.730Z,62.67
2023-02-01T11:22:22.125Z,62.70
2023-02-01T11:24:40.361Z,62.87
2023-02-01T11:26:54.905Z,62.90
2023-02-01T11:29:09.463Z,62.83
2023-02-01T11:31:22.718Z,63.08
2023-02-01T11:33:38.310Z,63.03
2023-02-01T11:35:52.412Z,63.06
2023-02-01T11:38:15.093Z,63.11
2023-02-01T11:40:39.888Z,63.12
2023-02-01T11:43:03.796Z,63.28
2023-02-01T11:45:32.501Z,63.35
2023-02-01T11:47:50.945Z,63.21
2023-02-01T11:50:05.697Z,63.38
2023-02-01T11:52:26.013Z,63.43
2023-02-01T11:54:53.542Z,63.36
2023-02-01T11:57:20.594Z,63.40
2023-02-01T11:59:56.375Z,63.40
2023-02-01T12:02:35.670Z,63.49
2023-02-01T12:05:15.431Z,63.63
2023-02-01T12:07:33.078Z,63.59
2023-02-01T12:10:03.191Z,63.72
2023-02-01T12:12:26.886Z,63.76
2023-02-01T12:15:01.200Z,63.77
2023-02-01T12:17:41.924Z,63.89
2023-02-01T12:20:16.347Z,63.87
2023-02-01T12:22:40.925Z,63.63
2023-02-01T12:25:20.839Z,63.72
2023-02-01T12:28:00.080Z,63.80
2023-02-01T12:30:39.722Z,63.84
2023-02-01T12:33:05.356Z,63.88
2023-02-01T12:35:48.804Z,63.91
2023-02-01T12:38:19.396Z,63.88
2023-02-01T12:40:46.257Z,63.94
2023-02-01T12:43:07.204Z,63.95
2023-02-01T12:45:26.011Z,63.78
2023-02-01T12:47:44.780Z,63.66
2023-02-01T12:50:06.320Z,63.91
2023-02-01T12:52:24.438Z,63.95
2023-02-01T12:54:43.816Z,63.94
2023-02-01T12:57:02.700Z,63.94
2023-02-01T12:59:24.008Z,63.99
2023-02-01T13:01:43.473Z,63.92
2023-02-01T13:04:08.021Z,63.97
2023-02-01T13:06:24.191Z,64.08
2023-02-01T13:08:46.104Z,64.10
2023-02-01T13:11:07.434Z,64.24
2023-02-01T13:13:27.078Z,64.21
2023-02-01T13:15:45.264Z,64.17
2023-02-01T13:17:59.941Z,64.24
2023-02-01T13:20:26.108Z,64.21
2023-02-01T13:22:43.448Z,64.31
2023-02-01T13:25:01.012Z,64.21
2023-02-01T13:27:18.089Z,64.30
2023-02-01T13:29:33.041Z,64.54
2023-02-01T13:32:19.386Z,64.37
2023-02-01T13:35:08.091Z,64.48
2023-02-01T13:37:39.359Z,64.48
2023-02-01T13:40:09.097Z,64.34
2023-02-01T13:42:25.847Z,64.30
2023-02-01T13:44:42.835Z,64.45
2023-02-01T13:47:00.464Z,64.61
2023-02-01T13:49:20.531Z,64.48
2023-02-01T13:51:45.513Z,64.66
2023-02-01T13:53:59.684Z,64.64
2023-02-01T13:56:18.460Z,64.55
2023-02-01T13:58:38.768Z,64.48
2023-02-01T14:00:53.059Z,64.76
2023-02-01T14:03:22.952Z,64.79
2023-02-01T14:06:20.228Z,64.72
2023-02-01T14:08:44.624Z,64.66
2023-02-01T14:11:03.028Z,64.76
2023-02-01T14:13:31.408Z,64.82
2023-02-01T14:15:57.481Z,64.87
2023-02-01T14:18:47.822Z,64.73
2023-02-01T14:21:23.949Z,64.87
2023-02-01T14:23:43.626Z,65.01
2023-02-01T14:26:23.001Z,64.89
2023-02-01T14:28:37.020Z,64.93
2023-02-01T14:30:52.291Z,64.99
2023-02-01T14:33:16.781Z,64.88
2023-02-01T14:35:32.074Z,64.93
2023-02-01T14:37:48.294Z,65.13
2023-02-01T14:40:07.993Z,65.11
2023-02-01T14:42:29.143Z,65.13
2023-02-01T14:44:58.600Z,65.20
2023-02-01T14:47:38.132Z,65.25
2023-02-01T14:49:59.849Z,65.30
2023-02-01T14:52:20.463Z,65.38
2023-02-01T14:54:33.957Z,65.31
2023-02-01T14:56:48.907Z,65.48
2023-02-01T14:59:06.259Z,65.28
2023-02-01T15:01:31.412Z,65.45
2023-02-01T15:03:52.713Z,65.53
2023-02-01T15:06:08.022Z,65.47
2023-02-01T15:08:28.496Z,65.50
2023-02-01T15:10:51.837Z,65.59
2023-02-01T15:13:05.183Z,65.55
2023-02-01T15:15:24.039Z,65.54
2023-02-01T15:17:38.128Z,65.62
2023-02-01T15:19:59.865Z,65.72
2023-02-01T15:22:22.738Z,65.62
2023-02-01T15:24:36.172Z,65.37
2023-02-01T15:26:49.409Z,65.41
2023-02-01T15:29:03.140Z,65.58
2023-02-01T15:31:17.985Z,65.66
2023-02-01T15:33:32.118Z,65.69
2023-02-01T15:35:48.834Z,65.58
2023-02-01T15:38:39.845Z,65.54
2023-02-01T15:41:04.724Z,65.66
2023-02-01T15:43:20.150Z,65.73
2023-02-01T15:45:37.278Z,65.71
2023-02-01T15:47:55.080Z,65.92
2023-02-01T15:50:09.644Z,65.92
2023-02-01T15:52:30.487Z,65.95
2023-02-01T15:54:52.557Z,66.31
2023-02-01T15:57:07.899Z,66.29
2023-02-01T15:59:23.828Z,66.67
2023-02-01T16:01:43.145Z,66.48
2023-02-01T16:04:05.855Z,66.47
2023-02-01T16:06:31.142Z,66.51
2023-02-01T16:08:53.247Z,66.41
2023-02-01T16:11:26.235Z,66.64
2023-02-01T16:13:39.691Z,66.42
2023-02-01T16:15:53.043Z,66.61
2023-02-01T16:18:07.294Z,66.58
2023-02-01T16:20:20.860Z,66.71
2023-02-01T16:22:34.169Z,66.53
2023-02-01T16:24:46.989Z,66.59
2023-02-01T16:26:59.834Z,66.64
2023-02-01T16:29:12.889Z,66.79
2023-02-01T16:31:30.390Z,66.62
2023-02-01T16:33:43.069Z,66.69
2023-02-01T16:35:57.207Z,66.49
2023-02-01T16:38:14.843Z,66.54
2023-02-01T16:40:28.103Z,66.69
2023-02-01T16:42:41.798Z,66.59
2023-02-01T16:44:54.611Z,66.58
2023-02-01T16:47:12.639Z,66.63
2023-02-01T16:49:27.679Z,66.42
2023-02-01T16:51:44.611Z,66.46
2023-02-01T16:53:57.808Z,66.60
2023-02-01T16:56:17.010Z,66.27
2023-02-01T16:58:30.878Z,66.25
2023-02-01T17:00:43.842Z,66.30
2023-02-01T17:02:57.759Z,66.12
2023-02-01T17:05:11.326Z,66.35
2023-02-01T17:07:25.414Z,66.26
2023-02-01T17:09:38.863Z,66.20
2023-02-01T17:11:52.725Z,66.27
2023-02-01T17:14:17.720Z,66.24
2023-02-01T17:16:33.003Z,66.12
2023-02-01T17:18:46.152Z,65.99
2023-02-01T17:20:58.897Z,65.79
2023-02-01T17:23:12.284Z,65.56
2023-02-01T17:25:27.276Z,65.26
2023-02-01T17:27:40.061Z,65.16
2023-02-01T17:29:54.956Z,64.79
2023-02-01T17:32:14.048Z,64.57
2023-02-01T17:34:26.864Z,64.84
2023-02-01T17:36:41.045Z,64.76
2023-02-01T17:39:04.764Z,64.40
2023-02-01T17:41:19.923Z,64.15
2023-02-01T17:43:33.138Z,63.71
2023-02-01T17:45:52.817Z,63.37
2023-02-01T17:48:05.967Z,63.53
2023-02-01T17:50:19.326Z,63.52
2023-02-01T17:52:32.587Z,63.42
2023-02-01T17:54:46.041Z,63.19
2023-02-01T17:57:01.372Z,63.01
2023-02-01T17:59:16.272Z,62.28
2023-02-01T18:01:31.361Z,61.58
2023-02-01T18:03:48.150Z,61.00
2023-02-01T18:06:02.566Z,60.62
2023-02-01T18:08:15.277Z,61.29
2023-02-01T18:10:28.104Z,61.53
2023-02-01T18:12:40.848Z,61.87
2023-02-01T18:14:53.535Z,61.79
2023-02-01T18:17:06.881Z,61.20
2023-02-01T18:19:19.800Z,60.76
2023-02-01T18:21:38.364Z,60.48
2023-02-01T18:23:51.469Z,58.54
2023-02-01T18:26:05.355Z,58.18
2023-02-01T18:28:18.548Z,57.63
2023-02-01T18:30:34.811Z,57.05
2023-02-01T18:32:48.120Z,56.26
2023-02-01T18:35:01.634Z,55.37
2023-02-01T18:37:14.624Z,55.24
2023-02-01T18:39:27.676Z,55.03
2023-02-01T18:41:41.581Z,55.13
2023-02-01T18:43:55.144Z,55.10
2023-02-01T18:46:08.399Z,55.10
2023-02-01T18:48:23.463Z,54.86
2023-02-01T18:50:38.646Z,54.06
2023-02-01T18:52:55.822Z,53.44
2023-02-01T18:55:09.274Z,52.87
2023-02-01T18:57:22.552Z,51.98
2023-02-01T18:59:35.501Z,51.67
2023-02-01T19:01:48.452Z,50.14
2023-02-01T19:04:03.767Z,49.49
2023-02-01T19:06:33.090Z,49.40
2023-02-01T19:08:47.901Z,47.99
2023-02-01T19:11:01.697Z,47.63
2023-02-01T19:13:16.547Z,48.10
2023-02-01T19:15:30.192Z,48.68
2023-02-01T19:17:43.307Z,47.82
2023-02-01T19:19:56.328Z,47.55
2023-02-01T19:22:08.945Z,47.93
2023-02-01T19:24:21.639Z,48.35
2023-02-01T19:26:36.347Z,48.75
2023-02-01T19:28:50.002Z,49.25
2023-02-01T19:31:10.195Z,49.10
2023-02-01T19:33:23.310Z,49.08
2023-02-01T19:35:35.965Z,49.04
2023-02-01T19:37:49.539Z,48.63
2023-02-01T19:40:02.347Z,48.67
2023-02-01T19:42:15.305Z,48.69
2023-02-01T19:44:29.226Z,49.20
2023-02-01T19:46:42.140Z,49.66
2023-02-01T19:48:55.510Z,49.75
2023-02-01T19:51:09.505Z,49.24
2023-02-01T19:53:26.037Z,47.82
2023-02-01T19:55:38.857Z,47.60
2023-02-01T19:57:53.145Z,47.26
2023-02-01T20:00:06.880Z,47.64
2023-02-01T20:02:20.784Z,47.39
2023-02-01T20:04:33.846Z,46.44
2023-02-01T20:06:49.975Z,46.13
2023-02-01T20:09:03.211Z,46.43
2023-02-01T20:11:16.638Z,47.18
2023-02-01T20:13:29.392Z,47.03
2023-02-01T20:15:43.152Z,47.02
2023-02-01T20:17:55.664Z,47.07
2023-02-01T20:20:08.787Z,47.26
2023-02-01T20:22:24.706Z,46.89
2023-02-01T20:24:37.059Z,46.77
2023-02-01T20:26:51.845Z,47.14
2023-02-01T20:29:05.031Z,47.90
2023-02-01T20:31:18.370Z,47.93
2023-02-01T20:33:31.769Z,47.82
2023-02-01T20:35:46.879Z,47.73
2023-02-01T20:38:00.252Z,48.02
2023-02-01T20:40:17.035Z,48.25
2023-02-01T20:42:29.563Z,47.62
2023-02-01T20:44:42.679Z,47.83
2023-02-01T20:46:55.391Z,47.68
2023-02-01T20:49:08.078Z,47.32
2023-02-01T20:51:22.932Z,47.38
2023-02-01T20:53:35.807Z,47.06
2023-02-01T20:55:48.903Z,47.20
2023-02-01T20:58:01.723Z,46.92
2023-02-01T21:00:17.549Z,46.58
2023-02-01T21:02:30.636Z,46.10
2023-02-01T21:04:43.686Z,46.41
2023-02-01T21:06:57.672Z,46.22
2023-02-01T21:09:10.472Z,46.31
2023-02-01T21:11:23.105Z,46.29
2023-02-01T21:13:41.593Z,46.23
2023-02-01T21:15:54.516Z,46.20
2023-02-01T21:18:10.171Z,46.10
2023-02-01T21:20:23.751Z,46.28
2023-02-01T21:22:36.736Z,45.90
2023-02-01T21:24:49.818Z,45.91
2023-02-01T21:27:04.059Z,44.88
2023-02-01T21:29:18.645Z,44.45
2023-02-01T21:31:31.331Z,44.22
2023-02-01T21:33:44.321Z,44.24
2023-02-01T21:35:58.176Z,44.03
2023-02-01T21:38:11.942Z,43.67
2023-02-01T21:40:26.515Z,43.75
2023-02-01T21:42:41.752Z,43.53
2023-02-01T21:44:54.483Z,43.62
2023-02-01T21:47:09.045Z,43.61
2023-02-01T21:49:22.227Z,43.66
2023-02-01T21:51:36.074Z,43.82
2023-02-01T21:53:49.315Z,43.70
2023-02-01T21:56:02.766Z,43.66
2023-02-01T21:58:16.143Z,43.71
2023-02-01T22:00:29.490Z,43.70
2023-02-01T22:02:42.548Z,43.68
2023-02-01T22:04:55.769Z,43.44
2023-02-01T22:07:08.621Z,43.28
2023-02-01T22:09:23.840Z,42.97
2023-02-01T22:11:36.849Z,42.93
2023-02-01T22:13:49.658Z,43.08
2023-02-01T22:16:04.003Z,42.77
2023-02-01T22:18:17.532Z,42.65
2023-02-01T22:20:30.777Z,42.66
2023-02-01T22:22:43.921Z,42.60
2023-02-01T22:24:57.065Z,42.37
2023-02-01T22:27:13.648Z,42.39
2023-02-01T22:29:27.999Z,42.33
2023-02-01T22:31:41.259Z,41.89
2023-02-01T22:33:55.487Z,41.64
2023-02-01T22:36:08.997Z,42.12
2023-02-01T22:38:22.094Z,42.00
2023-02-01T22:40:34.766Z,41.90
2023-02-01T22:42:47.779Z,41.28
2023-02-01T22:45:02.438Z,40.70
2023-02-01T22:47:15.340Z,40.99
2023-02-01T22:49:28.355Z,41.21
2023-02-01T22:51:42.358Z,41.51
2023-02-01T22:53:58.885Z,41.38
2023-02-01T22:56:14.091Z,41.38
2023-02-01T22:58:27.122Z,41.28
2023-02-01T23:00:39.922Z,41.36
2023-02-01T23:02:52.925Z,41.12
2023-02-01T23:05:06.319Z,40.84
2023-02-01T23:07:19.853Z,40.90
2023-02-01T23:09:33.149Z,41.15
2023-02-01T23:11:46.515Z,40.99
2023-02-01T23:13:59.386Z,41.39
2023-02-01T23:16:14.375Z,40.78
2023-02-01T23:18:29.232Z,41.10
2023-02-01T23:20:43.381Z,40.99
2023-02-01T23:22:56.307Z,41.26
2023-02-01T23:25:09.499Z,41.12
2023-02-01T23:27:22.374Z,41.38
2023-02-01T23:29:36.045Z,41.38
2023-02-01T23:31:49.188Z,41.60
2023-02-01T23:34:02.887Z,41.61
2023-02-01T23:36:20.299Z,41.23
2023-02-01T23:38:33.649Z,41.05
2023-02-01T23:40:46.548Z,41.25
2023-02-01T23:43:12.231Z,40.57
2023-02-01T23:45:25.332Z,40.99
2023-02-01T23:47:37.992Z,41.38
2023-02-01T23:49:50.794Z,40.95
2023-02-01T23:52:03.452Z,41.00
2023-02-01T23:54:17.026Z,40.94
2023-02-01T23:56:32.427Z,41.03
2023-02-01T23:58:45.395Z,40.61
